Terminal Aerodrome Forecast
Issued by NWS Corpus Christi, TX

Home | Current Version | Previous Version | Text Only | Print | Product List | Glossary On
Versions: 1 2 3 4 5 6 7 8 9 10 11 12 13 14 15 16
000
FTUS44 KCRP 281400 AAA
TAFCRP
TAF AMD
KCRP 281402Z 2814/2912 16011KT P6SM SCT025
      TEMPO 2814/2816 BKN020
     FM281800 14017G24KT P6SM FEW040
     FM290200 VRB06KT P6SM FEW015=

USA.gov is the U.S. government's official web portal to all federal, state and local government web resources and services.